createdAt,value
2022-10-19T00:00:12.948Z,8.98
2022-10-19T00:05:37.837Z,9.22
2022-10-19T00:11:02.925Z,9.51
2022-10-19T00:16:31.287Z,9.61
2022-10-19T00:21:55.882Z,9.55
2022-10-19T00:27:21.112Z,9.45
2022-10-19T00:32:48.290Z,9.34
2022-10-19T00:38:13.166Z,9.05
2022-10-19T00:43:53.325Z,9.00
2022-10-19T00:49:23.622Z,8.97
2022-10-19T00:54:50.834Z,8.93
2022-10-19T01:00:19.461Z,8.83
2022-10-19T01:05:44.841Z,8.76
2022-10-19T01:11:24.977Z,8.56
2022-10-19T01:16:58.582Z,8.48
2022-10-19T01:22:36.218Z,8.37
2022-10-19T01:28:17.761Z,8.35
2022-10-19T01:33:53.093Z,8.27
2022-10-19T01:39:36.881Z,8.26
2022-10-19T01:45:07.100Z,8.27
2022-10-19T01:50:39.535Z,8.26
2022-10-19T01:56:08.058Z,8.16
2022-10-19T02:01:36.679Z,8.11
2022-10-19T02:07:03.898Z,8.11
2022-10-19T02:12:30.080Z,8.03
2022-10-19T02:17:59.807Z,7.99
2022-10-19T02:23:28.825Z,7.97
2022-10-19T02:28:55.874Z,7.94
2022-10-19T02:34:21.919Z,7.94
2022-10-19T02:39:48.159Z,8.03
2022-10-19T02:45:18.541Z,7.97
2022-10-19T02:50:45.366Z,7.85
2022-10-19T02:56:11.786Z,7.87
2022-10-19T03:01:37.066Z,7.81
2022-10-19T03:07:02.077Z,7.89
2022-10-19T03:12:27.786Z,7.91
2022-10-19T03:17:53.981Z,8.04
2022-10-19T03:23:19.684Z,8.09
2022-10-19T03:28:45.279Z,8.05
2022-10-19T03:34:09.550Z,8.12
2022-10-19T03:39:33.697Z,8.09
2022-10-19T03:44:59.313Z,8.05
2022-10-19T03:50:24.902Z,8.02
2022-10-19T03:55:49.852Z,8.00
2022-10-19T04:01:16.906Z,7.84
2022-10-19T04:06:44.014Z,7.64
2022-10-19T04:12:08.290Z,7.61
2022-10-19T04:17:34.038Z,7.56
2022-10-19T04:22:58.505Z,7.62
2022-10-19T04:28:23.748Z,7.58
2022-10-19T04:33:49.873Z,7.48
2022-10-19T04:39:15.534Z,7.62
2022-10-19T04:44:44.183Z,8.01
2022-10-19T04:50:14.401Z,8.61
2022-10-19T04:55:41.984Z,9.15
2022-10-19T05:01:11.184Z,9.84
2022-10-19T05:06:37.651Z,10.99
2022-10-19T05:12:02.207Z,10.55
2022-10-19T05:17:31.064Z,10.86
2022-10-19T05:22:57.399Z,11.89
2022-10-19T05:28:22.103Z,11.25
2022-10-19T05:33:46.862Z,12.34
2022-10-19T05:39:15.521Z,12.67
2022-10-19T05:44:40.112Z,13.58
2022-10-19T05:50:05.506Z,14.63
2022-10-19T05:55:36.661Z,16.11
2022-10-19T06:01:01.381Z,17.43
2022-10-19T06:06:26.393Z,17.45
2022-10-19T06:11:51.615Z,18.34
2022-10-19T06:17:16.298Z,20.48
2022-10-19T06:22:40.073Z,22.38
2022-10-19T06:28:05.811Z,23.07
2022-10-19T06:33:30.041Z,23.00
2022-10-19T06:38:54.731Z,20.73
2022-10-19T06:44:21.393Z,20.31
2022-10-19T06:49:46.570Z,20.01
2022-10-19T06:55:17.126Z,19.21
2022-10-19T07:00:44.097Z,18.02
2022-10-19T07:06:10.831Z,16.53
2022-10-19T07:11:35.317Z,15.35
2022-10-19T07:17:01.842Z,15.76
2022-10-19T07:22:28.247Z,15.97
2022-10-19T07:27:52.917Z,16.36
2022-10-19T07:33:20.542Z,16.84
2022-10-19T07:38:44.957Z,16.73
2022-10-19T07:44:12.166Z,17.22
2022-10-19T07:49:41.646Z,16.80
2022-10-19T07:55:07.837Z,16.57
2022-10-19T08:00:32.292Z,16.79
2022-10-19T08:06:02.568Z,17.13
2022-10-19T08:11:30.081Z,17.31
2022-10-19T08:16:54.930Z,18.55
2022-10-19T08:22:20.730Z,17.44
2022-10-19T08:27:47.129Z,18.00
2022-10-19T08:33:12.694Z,17.13
2022-10-19T08:38:39.602Z,17.49
2022-10-19T08:44:25.846Z,18.07
2022-10-19T08:49:50.330Z,17.65
2022-10-19T08:55:23.221Z,18.70
2022-10-19T09:00:56.290Z,19.52
2022-10-19T09:06:27.591Z,19.29
2022-10-19T09:11:59.738Z,19.14
2022-10-19T09:17:26.279Z,20.29
2022-10-19T09:22:59.843Z,20.14
2022-10-19T09:28:42.396Z,19.15
2022-10-19T09:34:14.503Z,18.77
2022-10-19T09:39:41.032Z,17.90
2022-10-19T09:45:19.807Z,18.26
2022-10-19T09:50:45.720Z,18.19
2022-10-19T09:56:19.663Z,18.43
2022-10-19T10:01:45.761Z,19.03
2022-10-19T10:07:17.302Z,19.01
2022-10-19T10:12:44.234Z,19.69
2022-10-19T10:18:15.394Z,19.45
2022-10-19T10:23:40.208Z,18.40
2022-10-19T10:29:19.379Z,19.06
2022-10-19T10:34:54.874Z,19.46
2022-10-19T10:40:25.460Z,19.67
2022-10-19T10:45:54.735Z,19.07
2022-10-19T10:51:24.904Z,19.61
2022-10-19T10:57:06.720Z,19.07
2022-10-19T11:02:41.234Z,19.02
2022-10-19T11:08:15.696Z,19.07
2022-10-19T11:13:46.002Z,19.19
2022-10-19T11:19:17.816Z,19.13
2022-10-19T11:24:57.173Z,19.29
2022-10-19T11:30:23.383Z,18.61
2022-10-19T11:35:53.135Z,19.39
2022-10-19T11:41:28.385Z,19.23
2022-10-19T11:47:08.095Z,19.26
2022-10-19T11:52:46.257Z,19.16
2022-10-19T11:58:34.829Z,19.19
2022-10-19T12:04:36.456Z,18.90
2022-10-19T12:10:10.141Z,19.21
2022-10-19T12:15:40.758Z,19.40
2022-10-19T12:21:11.103Z,19.29
2022-10-19T12:26:37.593Z,18.72
2022-10-19T12:32:05.893Z,18.87
2022-10-19T12:37:36.185Z,18.89
2022-10-19T12:43:06.200Z,18.44
2022-10-19T12:48:32.948Z,18.42
2022-10-19T12:54:09.622Z,18.50
2022-10-19T12:59:36.910Z,18.22
2022-10-19T13:05:03.037Z,18.21
2022-10-19T13:10:29.509Z,18.11
2022-10-19T13:15:55.165Z,17.87
2022-10-19T13:22:01.127Z,17.74
2022-10-19T13:27:38.869Z,17.60
2022-10-19T13:33:42.761Z,17.58
2022-10-19T13:39:17.214Z,17.48
2022-10-19T13:44:47.290Z,17.23
2022-10-19T13:50:18.769Z,17.11
2022-10-19T13:55:56.690Z,17.04
2022-10-19T14:01:40.310Z,17.26
2022-10-19T14:07:11.623Z,17.45
2022-10-19T14:12:41.503Z,17.54
2022-10-19T14:18:24.873Z,17.61
2022-10-19T14:23:51.818Z,17.63
2022-10-19T14:29:16.312Z,17.66
2022-10-19T14:34:43.202Z,17.53
2022-10-19T14:40:26.630Z,17.20
2022-10-19T14:46:14.916Z,17.05
2022-10-19T14:51:44.775Z,16.94
2022-10-19T14:57:15.568Z,16.84
2022-10-19T15:02:44.381Z,16.73
2022-10-19T15:08:13.137Z,16.61
2022-10-19T15:13:43.079Z,16.47
2022-10-19T15:19:16.752Z,16.42
2022-10-19T15:24:57.046Z,16.21
2022-10-19T15:30:30.264Z,16.03
2022-10-19T15:36:07.360Z,15.78
2022-10-19T15:41:34.771Z,15.55
2022-10-19T15:47:23.209Z,15.12
2022-10-19T15:52:47.785Z,15.08
2022-10-19T15:58:15.229Z,14.97
2022-10-19T16:03:40.621Z,14.93
2022-10-19T16:09:05.809Z,14.95
2022-10-19T16:14:34.360Z,14.87
2022-10-19T16:20:04.171Z,14.76
2022-10-19T16:25:28.847Z,14.53
2022-10-19T16:30:57.153Z,14.29
2022-10-19T16:36:25.628Z,13.90
2022-10-19T16:41:50.368Z,13.56
2022-10-19T16:47:17.055Z,13.50
2022-10-19T16:52:42.249Z,13.36
2022-10-19T16:58:06.950Z,13.31
2022-10-19T17:03:33.282Z,13.23
2022-10-19T17:14:44.004Z,13.09
2022-10-19T17:20:11.730Z,12.87
2022-10-19T17:25:37.206Z,12.74
2022-10-19T17:31:06.601Z,12.76
2022-10-19T17:36:34.578Z,12.73
2022-10-19T17:42:02.118Z,12.69
2022-10-19T17:47:27.114Z,12.73
2022-10-19T17:52:53.982Z,12.74
2022-10-19T17:58:20.580Z,12.74
2022-10-19T18:03:46.555Z,12.75
2022-10-19T18:09:13.739Z,12.75
2022-10-19T18:14:38.743Z,12.71
2022-10-19T18:20:05.548Z,12.63
2022-10-19T18:25:52.848Z,12.54
2022-10-19T18:31:20.584Z,12.47
2022-10-19T18:36:45.419Z,12.38
2022-10-19T18:42:13.187Z,12.36
2022-10-19T18:47:37.853Z,12.14
2022-10-19T18:53:03.675Z,12.26
2022-10-19T18:58:30.976Z,12.35
2022-10-19T19:03:57.242Z,12.40
2022-10-19T19:09:22.200Z,12.38
2022-10-19T19:14:48.646Z,12.39
2022-10-19T19:20:15.338Z,12.40
2022-10-19T19:25:41.107Z,12.45
2022-10-19T19:31:08.281Z,12.44
2022-10-19T19:36:32.311Z,12.47
2022-10-19T19:41:57.029Z,12.46
2022-10-19T19:47:22.849Z,12.40
2022-10-19T19:52:49.198Z,12.37
2022-10-19T19:58:13.177Z,12.32
2022-10-19T20:03:38.897Z,12.26
2022-10-19T20:09:02.991Z,12.27
2022-10-19T20:14:26.987Z,12.27
2022-10-19T20:19:55.932Z,12.26
2022-10-19T20:25:20.436Z,12.23
2022-10-19T20:30:44.999Z,12.17
2022-10-19T20:36:12.127Z,12.16
2022-10-19T20:41:36.774Z,12.18
2022-10-19T20:47:01.217Z,12.10
2022-10-19T20:52:28.436Z,12.05
2022-10-19T20:57:52.902Z,11.98
2022-10-19T21:03:17.664Z,12.01
2022-10-19T21:08:44.055Z,12.08
2022-10-19T21:14:11.675Z,12.09
2022-10-19T21:19:36.429Z,12.11
2022-10-19T21:25:02.872Z,12.16
2022-10-19T21:30:28.404Z,12.24
2022-10-19T21:35:54.266Z,12.28
2022-10-19T21:41:25.419Z,12.28
2022-10-19T21:46:51.393Z,12.21
2022-10-19T21:52:16.282Z,12.15
2022-10-19T21:57:42.085Z,12.06
2022-10-19T22:03:08.324Z,11.94
2022-10-19T22:08:33.475Z,11.94
2022-10-19T22:14:03.876Z,11.79
2022-10-19T22:19:29.272Z,11.83
2022-10-19T22:24:52.858Z,11.79
2022-10-19T22:30:18.237Z,11.71
2022-10-19T22:35:44.049Z,11.61
2022-10-19T22:41:08.664Z,11.45
2022-10-19T22:46:34.729Z,11.42
2022-10-19T22:52:01.092Z,11.39
2022-10-19T22:57:25.509Z,11.39
2022-10-19T23:02:52.124Z,11.46
2022-10-19T23:08:16.853Z,11.46
2022-10-19T23:13:41.855Z,11.42
2022-10-19T23:19:07.741Z,11.12
2022-10-19T23:24:32.588Z,10.93
2022-10-19T23:29:59.321Z,10.80
2022-10-19T23:35:25.582Z,10.69
2022-10-19T23:40:50.246Z,10.37
2022-10-19T23:46:14.917Z,9.83
2022-10-19T23:51:41.032Z,9.62
2022-10-19T23:57:05.635Z,9.72
